createdAt,value
2023-02-01T00:01:09.481Z,5.50
2023-02-01T00:03:36.735Z,4.50
2023-02-01T00:06:04.043Z,4.73
2023-02-01T00:08:31.316Z,5.33
2023-02-01T00:11:07.634Z,4.87
2023-02-01T00:13:41.241Z,4.10
2023-02-01T00:16:17.452Z,4.97
2023-02-01T00:18:46.233Z,3.90
2023-02-01T00:21:15.438Z,3.10
2023-02-01T00:23:42.755Z,3.00
2023-02-01T00:26:20.644Z,3.47
2023-02-01T00:28:47.740Z,3.23
2023-02-01T00:31:16.069Z,4.23
2023-02-01T00:33:43.429Z,3.63
2023-02-01T00:36:11.034Z,4.10
2023-02-01T00:38:39.639Z,4.23
2023-02-01T00:41:10.778Z,5.30
2023-02-01T00:43:37.859Z,4.80
2023-02-01T00:46:05.114Z,3.73
2023-02-01T00:48:33.019Z,4.30
2023-02-01T00:51:10.288Z,4.00
2023-02-01T00:53:37.965Z,3.40
2023-02-01T00:56:06.272Z,3.90
2023-02-01T00:58:34.475Z,2.97
2023-02-01T01:01:16.973Z,3.90
2023-02-01T01:03:48.417Z,2.60
2023-02-01T01:06:19.184Z,2.93
2023-02-01T01:08:46.474Z,2.10
2023-02-01T01:11:21.051Z,2.30
2023-02-01T01:13:50.995Z,2.23
2023-02-01T01:16:19.297Z,3.23
2023-02-01T01:18:47.721Z,2.57
2023-02-01T01:21:17.332Z,2.37
2023-02-01T01:23:46.520Z,2.20
2023-02-01T01:26:20.865Z,3.13
2023-02-01T01:28:48.512Z,1.87
2023-02-01T01:31:18.093Z,2.40
2023-02-01T01:33:49.357Z,2.47
2023-02-01T01:36:16.920Z,1.70
2023-02-01T01:38:44.427Z,2.50
2023-02-01T01:41:17.479Z,4.30
2023-02-01T01:44:02.440Z,2.93
2023-02-01T01:46:36.543Z,2.50
2023-02-01T01:49:16.125Z,2.10
2023-02-01T01:51:50.496Z,2.33
2023-02-01T01:54:31.021Z,2.80
2023-02-01T01:57:05.859Z,2.27
2023-02-01T01:59:37.578Z,2.17
2023-02-01T02:02:05.216Z,2.57
2023-02-01T02:04:33.886Z,2.47
2023-02-01T02:07:05.783Z,4.93
2023-02-01T02:09:32.900Z,4.30
2023-02-01T02:11:59.929Z,4.43
2023-02-01T02:14:27.903Z,4.37
2023-02-01T02:17:13.627Z,6.37
2023-02-01T02:20:18.912Z,7.23
2023-02-01T02:23:24.354Z,10.53
2023-02-01T02:26:07.301Z,2.40
2023-02-01T02:29:25.602Z,2.63
2023-02-01T02:32:42.854Z,2.20
2023-02-01T02:35:30.718Z,2.40
2023-02-01T02:38:19.295Z,2.47
2023-02-01T02:41:36.030Z,2.30
2023-02-01T02:44:31.446Z,2.33
2023-02-01T02:47:23.999Z,2.30
2023-02-01T02:50:36.875Z,2.77
2023-02-01T02:53:37.826Z,2.27
2023-02-01T02:56:26.946Z,2.20
2023-02-01T02:59:13.667Z,2.13
2023-02-01T03:02:00.424Z,2.13
2023-02-01T03:04:27.631Z,2.90
2023-02-01T03:06:55.620Z,2.17
2023-02-01T03:09:36.942Z,2.37
2023-02-01T03:12:29.400Z,2.20
2023-02-01T03:15:05.163Z,3.07
2023-02-01T03:17:40.942Z,2.13
2023-02-01T03:20:11.870Z,2.00
2023-02-01T03:22:41.062Z,2.10
2023-02-01T03:25:27.021Z,2.07
2023-02-01T03:28:07.407Z,2.37
2023-02-01T03:30:39.838Z,2.17
2023-02-01T03:33:31.182Z,2.40
2023-02-01T03:36:39.974Z,3.00
2023-02-01T03:39:49.342Z,2.53
2023-02-01T03:42:38.616Z,2.80
2023-02-01T03:45:20.208Z,2.10
2023-02-01T03:47:51.500Z,2.83
2023-02-01T03:50:24.873Z,2.37
2023-02-01T03:53:09.150Z,2.17
2023-02-01T03:55:37.845Z,2.80
2023-02-01T03:58:16.077Z,2.57
2023-02-01T04:00:57.264Z,2.30
2023-02-01T04:03:26.307Z,2.10
2023-02-01T04:05:54.221Z,2.37
2023-02-01T04:08:25.135Z,2.40
2023-02-01T04:10:52.504Z,2.37
2023-02-01T04:13:19.627Z,2.47
2023-02-01T04:15:50.782Z,2.00
2023-02-01T04:18:17.896Z,2.60
2023-02-01T04:20:46.009Z,2.57
2023-02-01T04:23:13.139Z,2.17
2023-02-01T04:25:40.209Z,2.40
2023-02-01T04:28:08.003Z,1.87
2023-02-01T04:30:35.449Z,2.00
2023-02-01T04:33:04.704Z,2.43
2023-02-01T04:35:32.087Z,2.20
2023-02-01T04:37:59.171Z,2.47
2023-02-01T04:40:26.292Z,2.37
2023-02-01T04:42:53.319Z,3.03
2023-02-01T04:45:20.347Z,2.27
2023-02-01T04:47:49.093Z,2.33
2023-02-01T04:50:16.768Z,2.33
2023-02-01T04:52:46.192Z,2.03
2023-02-01T04:55:14.389Z,2.53
2023-02-01T04:57:41.853Z,2.80
2023-02-01T05:00:11.304Z,2.10
2023-02-01T05:02:38.845Z,2.30
2023-02-01T05:05:06.886Z,2.40
2023-02-01T05:07:33.969Z,3.67
2023-02-01T05:10:01.059Z,17.27
2023-02-01T05:12:46.470Z,6.20
2023-02-01T05:15:13.552Z,4.77
2023-02-01T05:17:41.368Z,3.17
2023-02-01T05:20:10.203Z,3.63
2023-02-01T05:22:37.274Z,2.83
2023-02-01T05:25:05.421Z,3.13
2023-02-01T05:27:33.992Z,2.77
2023-02-01T05:30:01.038Z,4.50
2023-02-01T05:32:28.149Z,4.93
2023-02-01T05:34:55.416Z,3.20
2023-02-01T05:37:22.542Z,3.90
2023-02-01T05:39:49.713Z,2.50
2023-02-01T05:42:16.739Z,2.60
2023-02-01T05:44:43.948Z,4.33
2023-02-01T05:47:11.505Z,4.33
2023-02-01T05:49:38.529Z,4.47
2023-02-01T05:52:05.794Z,2.87
2023-02-01T05:54:32.898Z,3.50
2023-02-01T05:57:00.033Z,5.10
2023-02-01T05:59:27.095Z,4.17
2023-02-01T06:01:54.139Z,4.43
2023-02-01T06:04:21.252Z,5.43
2023-02-01T06:06:51.433Z,3.73
2023-02-01T06:09:18.690Z,3.47
2023-02-01T06:11:46.097Z,2.87
2023-02-01T06:14:13.161Z,3.20
2023-02-01T06:16:40.261Z,2.57
2023-02-01T06:19:07.343Z,2.60
2023-02-01T06:21:34.541Z,4.40
2023-02-01T06:24:01.607Z,3.47
2023-02-01T06:26:29.780Z,2.77
2023-02-01T06:28:57.440Z,2.33
2023-02-01T06:31:24.745Z,3.03
2023-02-01T06:33:53.063Z,3.30
2023-02-01T06:36:22.173Z,2.90
2023-02-01T06:38:49.655Z,2.37
2023-02-01T06:41:18.031Z,3.03
2023-02-01T06:43:46.559Z,3.27
2023-02-01T06:46:14.877Z,4.83
2023-02-01T06:48:42.314Z,3.10
2023-02-01T06:51:25.750Z,2.10
2023-02-01T06:53:53.298Z,2.50
2023-02-01T06:56:21.763Z,2.93
2023-02-01T06:58:49.342Z,2.30
2023-02-01T07:01:17.190Z,2.53
2023-02-01T07:03:48.398Z,2.70
2023-02-01T07:06:15.506Z,2.90
2023-02-01T07:08:42.679Z,2.97
2023-02-01T07:11:13.129Z,2.90
2023-02-01T07:13:40.794Z,2.83
2023-02-01T07:16:15.725Z,2.73
2023-02-01T07:18:43.217Z,2.70
2023-02-01T07:21:10.661Z,2.53
2023-02-01T07:23:38.410Z,2.63
2023-02-01T07:26:08.441Z,3.20
2023-02-01T07:28:37.029Z,2.57
2023-02-01T07:31:14.526Z,2.77
2023-02-01T07:33:41.944Z,2.77
2023-02-01T07:36:14.225Z,2.40
2023-02-01T07:38:41.601Z,2.53
2023-02-01T07:41:09.273Z,3.00
2023-02-01T07:43:37.219Z,3.07
2023-02-01T07:46:05.932Z,2.97
2023-02-01T07:48:34.826Z,2.57
2023-02-01T07:51:07.047Z,3.20
2023-02-01T07:53:35.541Z,2.93
2023-02-01T07:56:03.972Z,3.07
2023-02-01T07:58:31.293Z,3.20
2023-02-01T08:01:16.782Z,3.90
2023-02-01T08:03:43.924Z,3.57
2023-02-01T08:06:11.371Z,3.67
2023-02-01T08:08:38.998Z,3.10
2023-02-01T08:11:07.910Z,2.60
2023-02-01T08:13:36.279Z,3.30
2023-02-01T08:16:07.312Z,3.20
2023-02-01T08:18:35.973Z,2.57
2023-02-01T08:21:08.643Z,2.80
2023-02-01T08:23:37.691Z,2.70
2023-02-01T08:26:17.664Z,3.10
2023-02-01T08:28:48.845Z,2.73
2023-02-01T08:31:20.252Z,2.93
2023-02-01T08:33:53.048Z,3.27
2023-02-01T08:36:21.108Z,3.40
2023-02-01T08:38:48.745Z,3.40
2023-02-01T08:41:19.970Z,3.37
2023-02-01T08:43:47.619Z,3.10
2023-02-01T08:46:15.777Z,2.50
2023-02-01T08:48:42.918Z,2.90
2023-02-01T08:51:13.124Z,3.37
2023-02-01T08:53:44.007Z,3.10
2023-02-01T08:56:14.462Z,2.60
2023-02-01T08:58:42.139Z,3.17
2023-02-01T09:01:16.256Z,3.80
2023-02-01T09:03:43.831Z,2.27
2023-02-01T09:06:16.416Z,3.13
2023-02-01T09:08:44.654Z,2.47
2023-02-01T09:11:18.348Z,2.80
2023-02-01T09:13:45.559Z,3.37
2023-02-01T09:16:13.385Z,2.90
2023-02-01T09:18:50.501Z,4.10
2023-02-01T09:21:23.615Z,2.90
2023-02-01T09:23:52.563Z,3.80
2023-02-01T09:26:22.830Z,2.90
2023-02-01T09:28:50.143Z,2.57
2023-02-01T09:31:17.363Z,2.97
2023-02-01T09:33:44.553Z,2.70
2023-02-01T09:36:11.846Z,2.33
2023-02-01T09:38:44.476Z,2.80
2023-02-01T09:41:57.399Z,2.57
2023-02-01T09:44:48.607Z,2.27
2023-02-01T09:47:20.307Z,2.57
2023-02-01T09:50:00.311Z,2.90
2023-02-01T09:52:45.983Z,2.93
2023-02-01T09:55:36.120Z,3.53
2023-02-01T09:58:11.388Z,2.90
2023-02-01T10:00:41.295Z,3.17
2023-02-01T10:03:14.276Z,2.80
2023-02-01T10:06:03.739Z,2.97
2023-02-01T10:08:49.369Z,2.90
2023-02-01T10:11:51.822Z,2.77
2023-02-01T10:14:54.307Z,3.37
2023-02-01T10:17:46.837Z,3.57
2023-02-01T10:20:28.124Z,3.43
2023-02-01T10:23:34.293Z,3.27
2023-02-01T10:26:30.498Z,3.63
2023-02-01T10:29:06.050Z,2.80
2023-02-01T10:31:37.737Z,3.23
2023-02-01T10:34:32.591Z,3.70
2023-02-01T10:37:28.283Z,3.57
2023-02-01T10:39:57.653Z,3.70
2023-02-01T10:42:29.811Z,3.20
2023-02-01T10:45:02.060Z,2.80
2023-02-01T10:47:29.119Z,3.80
2023-02-01T10:50:04.987Z,3.20
2023-02-01T10:53:00.051Z,3.57
2023-02-01T10:55:29.448Z,5.03
2023-02-01T10:58:03.683Z,3.90
2023-02-01T11:01:06.318Z,3.17
2023-02-01T11:03:46.223Z,3.50
2023-02-01T11:06:31.397Z,3.90
2023-02-01T11:09:10.772Z,4.70
2023-02-01T11:11:50.050Z,5.80
2023-02-01T11:14:41.726Z,5.33
2023-02-01T11:17:16.174Z,4.47
2023-02-01T11:20:02.256Z,5.63
2023-02-01T11:22:30.687Z,4.03
2023-02-01T11:24:59.991Z,3.30
2023-02-01T11:27:28.173Z,3.30
2023-02-01T11:30:01.302Z,4.30
2023-02-01T11:32:29.063Z,11.33
2023-02-01T11:35:06.727Z,11.70
2023-02-01T11:37:44.338Z,4.63
2023-02-01T11:40:17.582Z,5.63
2023-02-01T11:43:14.863Z,5.03
2023-02-01T11:45:42.091Z,5.07
2023-02-01T11:48:26.179Z,6.07
2023-02-01T11:51:24.215Z,5.07
2023-02-01T11:54:34.941Z,6.23
2023-02-01T11:57:23.711Z,16.67
2023-02-01T12:00:46.535Z,15.90
2023-02-01T12:04:06.991Z,7.10
2023-02-01T12:07:03.368Z,55.47
2023-02-01T12:10:05.402Z,55.07
2023-02-01T12:12:59.566Z,52.70
2023-02-01T12:15:30.682Z,55.03
2023-02-01T12:18:25.155Z,57.50
2023-02-01T12:21:08.007Z,59.43
2023-02-01T12:24:05.462Z,55.77
2023-02-01T12:27:19.121Z,53.47
2023-02-01T12:29:47.022Z,54.37
2023-02-01T12:32:47.574Z,56.13
2023-02-01T12:35:50.633Z,52.07
2023-02-01T12:38:51.146Z,51.40
2023-02-01T12:41:31.578Z,51.23
2023-02-01T12:44:00.126Z,52.80
2023-02-01T12:46:56.951Z,51.63
2023-02-01T12:49:30.301Z,53.13
2023-02-01T12:52:14.001Z,56.83
2023-02-01T12:54:55.027Z,63.07
2023-02-01T12:57:31.679Z,54.13
2023-02-01T13:00:39.117Z,53.40
2023-02-01T13:03:36.662Z,52.80
2023-02-01T13:06:38.376Z,53.07
2023-02-01T13:09:27.961Z,52.40
2023-02-01T13:12:01.862Z,51.77
2023-02-01T13:14:53.714Z,52.57
2023-02-01T13:17:33.491Z,54.57
2023-02-01T13:20:08.570Z,52.27
2023-02-01T13:23:02.954Z,52.70
2023-02-01T13:25:51.573Z,52.43
2023-02-01T13:28:28.615Z,53.47
2023-02-01T13:31:32.191Z,52.10
2023-02-01T13:34:57.470Z,52.53
2023-02-01T13:37:53.094Z,51.77
2023-02-01T13:40:29.516Z,53.90
2023-02-01T13:43:25.396Z,52.37
2023-02-01T13:45:57.986Z,53.13
2023-02-01T13:48:34.016Z,53.17
2023-02-01T13:51:02.396Z,52.50
2023-02-01T13:53:34.629Z,52.87
2023-02-01T13:56:23.615Z,51.17
2023-02-01T13:58:52.454Z,51.50
2023-02-01T14:01:22.197Z,51.17
2023-02-01T14:04:00.686Z,52.63
2023-02-01T14:06:28.445Z,53.07
2023-02-01T14:09:38.282Z,52.23
2023-02-01T14:12:48.073Z,54.40
2023-02-01T14:15:24.452Z,52.60
2023-02-01T14:17:52.253Z,54.47
2023-02-01T14:20:54.182Z,52.53
2023-02-01T14:23:24.387Z,51.87
2023-02-01T14:26:05.645Z,53.37
2023-02-01T14:28:32.812Z,54.43
2023-02-01T14:31:00.799Z,53.37
2023-02-01T14:33:29.441Z,52.40
2023-02-01T14:36:09.258Z,52.63
2023-02-01T14:38:38.802Z,53.63
2023-02-01T14:41:34.696Z,52.67
2023-02-01T14:44:04.567Z,52.27
2023-02-01T14:47:23.798Z,55.00
2023-02-01T14:50:28.114Z,51.27
2023-02-01T14:53:12.945Z,50.77
2023-02-01T14:55:51.478Z,52.87
2023-02-01T14:58:43.209Z,52.40
2023-02-01T15:01:34.455Z,53.27
2023-02-01T15:04:13.263Z,55.50
2023-02-01T15:06:58.431Z,51.70
2023-02-01T15:09:40.279Z,53.23
2023-02-01T15:12:13.356Z,52.77
2023-02-01T15:14:52.759Z,53.57
2023-02-01T15:17:34.627Z,52.40
2023-02-01T15:20:23.989Z,52.13
2023-02-01T15:23:08.707Z,51.53
2023-02-01T15:25:40.096Z,55.50
2023-02-01T15:28:15.107Z,60.73
2023-02-01T15:30:58.925Z,61.00
2023-02-01T15:33:28.241Z,58.13
2023-02-01T15:36:09.423Z,55.00
2023-02-01T15:38:43.085Z,53.53
2023-02-01T15:41:24.387Z,53.17
2023-02-01T15:43:58.615Z,53.07
2023-02-01T15:46:40.454Z,52.63
2023-02-01T15:49:22.304Z,52.87
2023-02-01T15:51:50.170Z,53.80
2023-02-01T15:54:32.506Z,53.17
2023-02-01T15:57:03.488Z,52.87
2023-02-01T15:59:38.752Z,52.90
2023-02-01T16:02:06.283Z,53.57
2023-02-01T16:04:34.126Z,54.23
2023-02-01T16:07:05.498Z,53.57
2023-02-01T16:09:55.479Z,53.23
2023-02-01T16:12:46.963Z,51.97
2023-02-01T16:15:14.789Z,51.53
2023-02-01T16:17:43.450Z,53.07
2023-02-01T16:20:11.659Z,53.93
2023-02-01T16:22:39.081Z,53.50
2023-02-01T16:25:07.088Z,52.43
2023-02-01T16:27:34.539Z,54.77
2023-02-01T16:30:02.188Z,56.30
2023-02-01T16:32:29.611Z,53.90
2023-02-01T16:34:58.592Z,54.27
2023-02-01T16:37:28.576Z,253.70
2023-02-01T16:39:55.685Z,54.17
2023-02-01T16:42:22.815Z,53.10
2023-02-01T16:44:49.927Z,53.33
2023-02-01T16:47:23.899Z,54.33
2023-02-01T16:49:51.363Z,74.60
2023-02-01T16:52:25.528Z,52.97
2023-02-01T16:54:53.847Z,53.57
2023-02-01T16:57:24.935Z,53.57
2023-02-01T16:59:52.185Z,53.37
2023-02-01T17:02:21.899Z,53.40
2023-02-01T17:04:49.840Z,53.10
2023-02-01T17:07:19.763Z,54.77
2023-02-01T17:09:48.114Z,53.70
2023-02-01T17:12:24.213Z,53.07
2023-02-01T17:14:52.362Z,53.90
2023-02-01T17:17:29.083Z,52.93
2023-02-01T17:20:05.685Z,53.47
2023-02-01T17:22:32.820Z,54.20
2023-02-01T17:24:59.868Z,53.80
2023-02-01T17:27:26.964Z,53.87
2023-02-01T17:29:57.152Z,55.33
2023-02-01T17:32:26.562Z,54.60
2023-02-01T17:34:53.716Z,53.63
2023-02-01T17:37:34.573Z,59.77
2023-02-01T17:40:02.241Z,54.90
2023-02-01T17:42:30.822Z,54.07
2023-02-01T17:45:02.722Z,54.83
2023-02-01T17:47:29.840Z,52.43
2023-02-01T17:49:57.348Z,56.13
2023-02-01T17:52:26.265Z,54.17
2023-02-01T17:54:54.275Z,53.70
2023-02-01T17:57:21.993Z,61.10
2023-02-01T17:59:49.184Z,53.63
2023-02-01T18:02:22.912Z,54.40
2023-02-01T18:04:51.479Z,51.43
2023-02-01T18:07:18.832Z,53.17
2023-02-01T18:09:45.905Z,53.33
2023-02-01T18:12:25.480Z,53.50
2023-02-01T18:14:52.515Z,53.40
2023-02-01T18:17:20.192Z,53.27
2023-02-01T18:19:47.317Z,52.70
2023-02-01T18:22:21.743Z,52.53
2023-02-01T18:24:48.873Z,52.77
2023-02-01T18:27:15.917Z,53.67
2023-02-01T18:29:42.956Z,52.40
2023-02-01T18:32:10.991Z,54.47
2023-02-01T18:34:38.463Z,52.40
2023-02-01T18:37:05.526Z,56.37
2023-02-01T18:39:32.565Z,53.90
2023-02-01T18:41:59.938Z,54.43
2023-02-01T18:44:27.011Z,56.53
2023-02-01T18:46:54.079Z,57.90
2023-02-01T18:49:21.161Z,53.03
2023-02-01T18:51:48.331Z,87.20
2023-02-01T18:54:15.523Z,54.27
2023-02-01T18:56:43.360Z,54.07
2023-02-01T18:59:11.908Z,53.17
2023-02-01T19:01:39.179Z,53.30
2023-02-01T19:04:07.402Z,52.93
2023-02-01T19:06:38.386Z,52.17
2023-02-01T19:09:05.807Z,51.47
2023-02-01T19:11:32.885Z,56.63
2023-02-01T19:13:59.924Z,51.30
2023-02-01T19:16:27.394Z,51.20
2023-02-01T19:18:54.750Z,52.23
2023-02-01T19:21:21.788Z,53.50
2023-02-01T19:23:48.878Z,52.53
2023-02-01T19:26:18.162Z,52.37
2023-02-01T19:28:47.862Z,53.70
2023-02-01T19:31:16.804Z,52.27
2023-02-01T19:33:44.378Z,55.43
2023-02-01T19:36:11.714Z,53.50
2023-02-01T19:38:39.204Z,51.40
2023-02-01T19:41:06.822Z,51.90
2023-02-01T19:43:34.104Z,51.07
2023-02-01T19:46:02.957Z,51.40
2023-02-01T19:48:31.556Z,50.87
2023-02-01T19:50:59.321Z,50.37
2023-02-01T19:53:28.045Z,50.93
2023-02-01T19:55:59.134Z,50.50
2023-02-01T19:58:26.422Z,51.83
2023-02-01T20:00:57.348Z,50.67
2023-02-01T20:03:24.540Z,52.50
2023-02-01T20:05:57.566Z,53.47
2023-02-01T20:08:25.369Z,53.73
2023-02-01T20:10:52.458Z,55.00
2023-02-01T20:13:19.826Z,63.00
2023-02-01T20:15:47.273Z,79.23
2023-02-01T20:18:15.226Z,75.13
2023-02-01T20:20:42.734Z,52.50
2023-02-01T20:23:09.942Z,56.90
2023-02-01T20:25:38.405Z,55.63
2023-02-01T20:28:05.736Z,55.00
2023-02-01T20:30:33.296Z,82.60
2023-02-01T20:33:00.466Z,54.30
2023-02-01T20:35:28.954Z,54.23
2023-02-01T20:37:58.969Z,52.23
2023-02-01T20:40:26.174Z,52.97
2023-02-01T20:42:53.823Z,53.53
2023-02-01T20:45:21.213Z,52.43
2023-02-01T20:47:52.810Z,58.13
2023-02-01T20:50:20.200Z,51.53
2023-02-01T20:52:47.480Z,52.30
2023-02-01T20:55:14.632Z,51.93
2023-02-01T20:57:42.410Z,51.20
2023-02-01T21:00:10.607Z,52.93
2023-02-01T21:02:37.766Z,53.53
2023-02-01T21:05:05.303Z,51.60
2023-02-01T21:07:32.354Z,51.90
2023-02-01T21:09:59.561Z,51.77
2023-02-01T21:12:26.566Z,52.63
2023-02-01T21:14:55.342Z,53.00
2023-02-01T21:17:23.229Z,54.13
2023-02-01T21:19:50.291Z,52.67
2023-02-01T21:22:17.363Z,52.73
2023-02-01T21:24:44.526Z,59.83
2023-02-01T21:27:12.217Z,55.83
2023-02-01T21:29:39.770Z,52.90
2023-02-01T21:32:08.563Z,55.23
2023-02-01T21:34:36.201Z,57.93
2023-02-01T21:37:03.691Z,56.97
2023-02-01T21:39:30.800Z,52.67
2023-02-01T21:42:17.629Z,53.47
2023-02-01T21:44:48.625Z,53.30
2023-02-01T21:47:18.513Z,52.83
2023-02-01T21:49:47.074Z,52.83
2023-02-01T21:52:16.407Z,52.13
2023-02-01T21:54:43.659Z,51.53
2023-02-01T21:57:13.755Z,51.83
2023-02-01T21:59:43.254Z,53.40
2023-02-01T22:02:14.553Z,53.73
2023-02-01T22:04:42.210Z,52.13
2023-02-01T22:07:10.597Z,53.20
2023-02-01T22:09:38.077Z,54.70
2023-02-01T22:12:05.418Z,52.40
2023-02-01T22:14:33.473Z,53.00
2023-02-01T22:17:00.753Z,53.73
2023-02-01T22:19:27.907Z,52.40
2023-02-01T22:21:55.120Z,52.70
2023-02-01T22:24:22.399Z,51.67
2023-02-01T22:26:50.024Z,52.37
2023-02-01T22:29:19.308Z,51.17
2023-02-01T22:31:46.707Z,51.90
2023-02-01T22:34:14.116Z,51.70
2023-02-01T22:36:41.374Z,52.47
2023-02-01T22:39:08.914Z,51.53
2023-02-01T22:41:35.995Z,51.20
2023-02-01T22:44:03.033Z,51.40
2023-02-01T22:46:33.327Z,51.67
2023-02-01T22:49:01.215Z,51.90
2023-02-01T22:51:31.913Z,52.47
2023-02-01T22:53:59.426Z,52.40
2023-02-01T22:56:31.564Z,51.77
2023-02-01T22:59:02.417Z,51.50
2023-02-01T23:01:30.010Z,50.87
2023-02-01T23:04:03.189Z,50.77
2023-02-01T23:06:32.157Z,50.60
2023-02-01T23:09:13.718Z,50.83
2023-02-01T23:11:41.888Z,50.73
2023-02-01T23:14:11.072Z,50.97
2023-02-01T23:16:39.245Z,51.20
2023-02-01T23:19:07.144Z,51.90
2023-02-01T23:21:34.558Z,51.37
2023-02-01T23:24:04.849Z,51.07
2023-02-01T23:26:32.567Z,51.47
2023-02-01T23:29:00.719Z,51.37
2023-02-01T23:31:32.996Z,51.93
2023-02-01T23:34:02.337Z,51.53
2023-02-01T23:36:30.836Z,52.10
2023-02-01T23:38:58.782Z,51.47
2023-02-01T23:41:29.970Z,51.43
2023-02-01T23:44:00.689Z,52.37
2023-02-01T23:46:38.183Z,52.03
2023-02-01T23:49:07.885Z,51.77
2023-02-01T23:51:35.872Z,51.50
2023-02-01T23:54:04.213Z,51.57
2023-02-01T23:56:42.140Z,52.20
2023-02-01T23:59:18.709Z,52.00
